sensor_id;sensor_type;location;lat;lon;timestamp;pressure;altitude;pressure_sealevel;temperature;humidity
10079;BME280;5078;42.544;22.966;2023-11-21T00:00:25;93727.41;;;3.55;100.00
10079;BME280;5078;42.544;22.966;2023-11-21T00:02:53;93725.19;;;3.51;100.00
10079;BME280;5078;42.544;22.966;2023-11-21T00:05:20;93729.84;;;3.28;100.00
10079;BME280;5078;42.544;22.966;2023-11-21T00:07:48;93724.59;;;3.18;100.00
10079;BME280;5078;42.544;22.966;2023-11-21T00:10:17;93731.41;;;2.99;100.00
10079;BME280;5078;42.544;22.966;2023-11-21T00:12:43;93733.00;;;3.31;100.00
10079;BME280;5078;42.544;22.966;2023-11-21T00:15:13;93743.94;;;3.46;100.00
10079;BME280;5078;42.544;22.966;2023-11-21T00:17:42;93739.69;;;3.55;100.00
10079;BME280;5078;42.544;22.966;2023-11-21T00:20:09;93735.22;;;3.26;100.00
10079;BME280;5078;42.544;22.966;2023-11-21T00:22:38;93747.47;;;3.16;100.00
10079;BME280;5078;42.544;22.966;2023-11-21T00:25:06;93756.41;;;3.13;100.00
10079;BME280;5078;42.544;22.966;2023-11-21T00:27:34;93748.19;;;3.28;100.00
10079;BME280;5078;42.544;22.966;2023-11-21T00:30:01;93760.56;;;3.16;100.00
10079;BME280;5078;42.544;22.966;2023-11-21T00:32:29;93746.31;;;2.99;100.00
10079;BME280;5078;42.544;22.966;2023-11-21T00:34:57;93710.66;;;2.67;100.00
10079;BME280;5078;42.544;22.966;2023-11-21T00:37:24;93752.59;;;2.87;100.00
10079;BME280;5078;42.544;22.966;2023-11-21T00:39:51;93756.47;;;2.83;100.00
10079;BME280;5078;42.544;22.966;2023-11-21T00:42:18;93757.00;;;2.86;100.00
10079;BME280;5078;42.544;22.966;2023-11-21T00:44:45;93750.59;;;3.00;100.00
10079;BME280;5078;42.544;22.966;2023-11-21T00:47:11;93749.34;;;3.04;100.00
10079;BME280;5078;42.544;22.966;2023-11-21T00:49:38;93747.19;;;3.19;100.00
10079;BME280;5078;42.544;22.966;2023-11-21T00:52:07;93744.56;;;3.19;100.00
10079;BME280;5078;42.544;22.966;2023-11-21T00:54:33;93736.69;;;3.09;100.00
10079;BME280;5078;42.544;22.966;2023-11-21T00:57:00;93726.09;;;2.70;100.00
10079;BME280;5078;42.544;22.966;2023-11-21T00:59:27;93749.34;;;3.04;100.00
10079;BME280;5078;42.544;22.966;2023-11-21T01:01:54;93742.31;;;2.95;100.00
10079;BME280;5078;42.544;22.966;2023-11-21T01:04:20;93741.81;;;2.49;100.00
10079;BME280;5078;42.544;22.966;2023-11-21T01:06:47;93743.66;;;2.07;100.00
10079;BME280;5078;42.544;22.966;2023-11-21T01:09:15;93748.25;;;2.35;100.00
10079;BME280;5078;42.544;22.966;2023-11-21T01:11:43;93738.91;;;2.73;100.00
10079;BME280;5078;42.544;22.966;2023-11-21T01:14:10;93743.09;;;2.86;100.00
10079;BME280;5078;42.544;22.966;2023-11-21T01:16:38;93723.22;;;2.73;100.00
10079;BME280;5078;42.544;22.966;2023-11-21T01:19:05;93744.53;;;2.69;100.00
10079;BME280;5078;42.544;22.966;2023-11-21T01:21:32;93747.22;;;2.48;100.00
10079;BME280;5078;42.544;22.966;2023-11-21T01:23:59;93746.84;;;2.31;100.00
10079;BME280;5078;42.544;22.966;2023-11-21T01:26:27;93749.00;;;2.26;100.00
10079;BME280;5078;42.544;22.966;2023-11-21T01:28:53;93750.91;;;2.24;100.00
10079;BME280;5078;42.544;22.966;2023-11-21T01:31:20;93745.69;;;2.24;100.00
10079;BME280;5078;42.544;22.966;2023-11-21T01:33:47;93750.03;;;2.35;100.00
10079;BME280;5078;42.544;22.966;2023-11-21T01:36:14;93747.97;;;2.38;100.00
10079;BME280;5078;42.544;22.966;2023-11-21T01:38:40;93743.94;;;2.34;100.00
10079;BME280;5078;42.544;22.966;2023-11-21T01:41:07;93741.59;;;2.31;100.00
10079;BME280;5078;42.544;22.966;2023-11-21T01:43:38;93735.53;;;2.31;100.00
10079;BME280;5078;42.544;22.966;2023-11-21T01:46:05;93727.06;;;2.38;100.00
10079;BME280;5078;42.544;22.966;2023-11-21T01:48:32;93719.41;;;2.26;100.00
10079;BME280;5078;42.544;22.966;2023-11-21T01:51:00;93721.75;;;2.50;100.00
10079;BME280;5078;42.544;22.966;2023-11-21T01:53:27;93723.00;;;2.55;100.00
10079;BME280;5078;42.544;22.966;2023-11-21T01:55:55;93722.22;;;2.65;100.00
10079;BME280;5078;42.544;22.966;2023-11-21T01:58:22;93717.50;;;2.58;100.00
10079;BME280;5078;42.544;22.966;2023-11-21T02:00:50;93730.47;;;2.60;100.00
10079;BME280;5078;42.544;22.966;2023-11-21T02:03:20;93721.75;;;2.59;100.00
10079;BME280;5078;42.544;22.966;2023-11-21T02:05:47;93717.28;;;2.71;100.00
10079;BME280;5078;42.544;22.966;2023-11-21T02:08:13;93721.03;;;2.78;100.00
10079;BME280;5078;42.544;22.966;2023-11-21T02:10:40;93722.00;;;2.77;100.00
10079;BME280;5078;42.544;22.966;2023-11-21T02:13:07;93726.06;;;2.61;100.00
10079;BME280;5078;42.544;22.966;2023-11-21T02:15:33;93690.13;;;2.63;100.00
10079;BME280;5078;42.544;22.966;2023-11-21T02:18:02;93721.09;;;2.57;100.00
10079;BME280;5078;42.544;22.966;2023-11-21T02:20:29;93725.03;;;2.52;100.00
10079;BME280;5078;42.544;22.966;2023-11-21T02:22:58;93714.00;;;2.48;100.00
10079;BME280;5078;42.544;22.966;2023-11-21T02:25:25;93694.91;;;2.57;100.00
10079;BME280;5078;42.544;22.966;2023-11-21T02:27:53;93712.16;;;2.39;100.00
10079;BME280;5078;42.544;22.966;2023-11-21T02:30:20;93726.44;;;2.25;100.00
10079;BME280;5078;42.544;22.966;2023-11-21T02:32:47;93718.81;;;2.43;100.00
10079;BME280;5078;42.544;22.966;2023-11-21T02:35:14;93713.19;;;2.48;100.00
10079;BME280;5078;42.544;22.966;2023-11-21T02:37:41;93716.53;;;2.59;100.00
10079;BME280;5078;42.544;22.966;2023-11-21T02:40:10;93718.72;;;2.54;100.00
10079;BME280;5078;42.544;22.966;2023-11-21T02:42:39;93719.63;;;2.74;100.00
10079;BME280;5078;42.544;22.966;2023-11-21T02:45:07;93700.22;;;2.87;100.00
10079;BME280;5078;42.544;22.966;2023-11-21T02:47:33;93695.81;;;2.77;100.00
10079;BME280;5078;42.544;22.966;2023-11-21T02:50:00;93694.97;;;2.77;100.00
10079;BME280;5078;42.544;22.966;2023-11-21T02:52:27;93696.50;;;2.79;100.00
10079;BME280;5078;42.544;22.966;2023-11-21T02:54:53;93694.97;;;2.77;100.00
10079;BME280;5078;42.544;22.966;2023-11-21T02:57:22;93697.69;;;2.66;100.00
10079;BME280;5078;42.544;22.966;2023-11-21T02:59:48;93701.63;;;2.91;100.00
10079;BME280;5078;42.544;22.966;2023-11-21T03:02:15;93694.63;;;3.01;100.00
10079;BME280;5078;42.544;22.966;2023-11-21T03:04:42;93702.56;;;2.80;100.00
10079;BME280;5078;42.544;22.966;2023-11-21T03:07:09;93710.59;;;2.88;100.00
10079;BME280;5078;42.544;22.966;2023-11-21T03:09:36;93722.22;;;2.13;100.00
10079;BME280;5078;42.544;22.966;2023-11-21T03:12:03;93728.34;;;2.54;100.00
10079;BME280;5078;42.544;22.966;2023-11-21T03:14:32;93723.94;;;2.45;100.00
10079;BME280;5078;42.544;22.966;2023-11-21T03:16:58;93719.81;;;2.52;100.00
10079;BME280;5078;42.544;22.966;2023-11-21T03:19:25;93688.69;;;2.18;100.00
10079;BME280;5078;42.544;22.966;2023-11-21T03:21:52;93713.84;;;2.19;100.00
10079;BME280;5078;42.544;22.966;2023-11-21T03:24:19;93695.63;;;2.08;100.00
10079;BME280;5078;42.544;22.966;2023-11-21T03:26:48;93714.25;;;1.93;100.00
10079;BME280;5078;42.544;22.966;2023-11-21T03:29:15;93693.72;;;2.10;100.00
10079;BME280;5078;42.544;22.966;2023-11-21T03:31:43;93689.44;;;2.30;100.00
10079;BME280;5078;42.544;22.966;2023-11-21T03:34:15;93693.16;;;2.37;100.00
10079;BME280;5078;42.544;22.966;2023-11-21T03:36:42;93694.22;;;2.55;100.00
10079;BME280;5078;42.544;22.966;2023-11-21T03:39:09;93684.19;;;2.61;100.00
10079;BME280;5078;42.544;22.966;2023-11-21T03:41:36;93687.63;;;2.30;100.00
10079;BME280;5078;42.544;22.966;2023-11-21T03:44:03;93693.84;;;2.08;100.00
10079;BME280;5078;42.544;22.966;2023-11-21T03:46:33;93697.81;;;2.03;100.00
10079;BME280;5078;42.544;22.966;2023-11-21T03:49:01;93696.34;;;1.89;100.00
10079;BME280;5078;42.544;22.966;2023-11-21T03:51:27;93675.88;;;1.73;100.00
10079;BME280;5078;42.544;22.966;2023-11-21T03:53:54;93683.19;;;1.79;100.00
10079;BME280;5078;42.544;22.966;2023-11-21T03:56:21;93685.25;;;1.97;100.00
10079;BME280;5078;42.544;22.966;2023-11-21T03:58:48;93689.81;;;2.25;100.00
10079;BME280;5078;42.544;22.966;2023-11-21T04:01:20;93700.19;;;2.36;100.00
10079;BME280;5078;42.544;22.966;2023-11-21T04:03:48;93700.66;;;2.51;100.00
10079;BME280;5078;42.544;22.966;2023-11-21T04:06:16;93703.44;;;2.50;100.00
10079;BME280;5078;42.544;22.966;2023-11-21T04:08:43;93675.81;;;2.36;100.00
10079;BME280;5078;42.544;22.966;2023-11-21T04:11:10;93701.53;;;2.31;100.00
10079;BME280;5078;42.544;22.966;2023-11-21T04:13:38;93701.47;;;2.42;100.00
10079;BME280;5078;42.544;22.966;2023-11-21T04:16:06;93695.91;;;2.35;100.00
10079;BME280;5078;42.544;22.966;2023-11-21T04:18:33;93682.84;;;2.35;100.00
10079;BME280;5078;42.544;22.966;2023-11-21T04:21:00;93682.06;;;2.45;100.00
10079;BME280;5078;42.544;22.966;2023-11-21T04:23:29;93679.69;;;2.42;100.00
10079;BME280;5078;42.544;22.966;2023-11-21T04:25:57;93675.31;;;2.52;100.00
10079;BME280;5078;42.544;22.966;2023-11-21T04:28:24;93671.50;;;2.56;100.00
10079;BME280;5078;42.544;22.966;2023-11-21T04:30:51;93680.13;;;2.77;100.00
10079;BME280;5078;42.544;22.966;2023-11-21T04:33:18;93683.88;;;2.54;100.00
10079;BME280;5078;42.544;22.966;2023-11-21T04:35:45;93684.06;;;2.31;100.00
10079;BME280;5078;42.544;22.966;2023-11-21T04:38:11;93674.94;;;2.26;100.00
10079;BME280;5078;42.544;22.966;2023-11-21T04:40:40;93676.09;;;2.33;100.00
10079;BME280;5078;42.544;22.966;2023-11-21T04:43:06;93672.38;;;2.05;100.00
10079;BME280;5078;42.544;22.966;2023-11-21T04:45:33;93667.31;;;2.44;100.00
10079;BME280;5078;42.544;22.966;2023-11-21T04:48:00;93681.66;;;2.49;100.00
10079;BME280;5078;42.544;22.966;2023-11-21T04:50:26;93665.66;;;2.43;100.00
10079;BME280;5078;42.544;22.966;2023-11-21T04:52:53;93683.50;;;2.28;100.00
10079;BME280;5078;42.544;22.966;2023-11-21T04:55:20;93684.22;;;2.40;100.00
10079;BME280;5078;42.544;22.966;2023-11-21T04:57:48;93672.53;;;2.44;100.00
10079;BME280;5078;42.544;22.966;2023-11-21T05:00:15;93691.78;;;2.33;100.00
10079;BME280;5078;42.544;22.966;2023-11-21T05:02:42;93687.47;;;2.22;100.00
10079;BME280;5078;42.544;22.966;2023-11-21T05:05:09;93669.50;;;2.08;100.00
10079;BME280;5078;42.544;22.966;2023-11-21T05:07:36;93682.25;;;2.01;100.00
10079;BME280;5078;42.544;22.966;2023-11-21T05:10:04;93693.16;;;2.06;100.00
10079;BME280;5078;42.544;22.966;2023-11-21T05:12:34;93691.25;;;1.87;100.00
10079;BME280;5078;42.544;22.966;2023-11-21T05:15:04;93681.22;;;1.71;100.00
10079;BME280;5078;42.544;22.966;2023-11-21T05:17:35;93693.19;;;1.53;100.00
10079;BME280;5078;42.544;22.966;2023-11-21T05:20:02;93703.94;;;1.71;100.00
10079;BME280;5078;42.544;22.966;2023-11-21T05:22:33;93707.63;;;1.89;100.00
10079;BME280;5078;42.544;22.966;2023-11-21T05:25:01;93710.69;;;2.15;100.00
10079;BME280;5078;42.544;22.966;2023-11-21T05:27:28;93701.44;;;2.11;100.00
10079;BME280;5078;42.544;22.966;2023-11-21T05:29:55;93707.63;;;1.89;100.00
10079;BME280;5078;42.544;22.966;2023-11-21T05:32:23;93692.91;;;1.88;100.00
10079;BME280;5078;42.544;22.966;2023-11-21T05:34:50;93704.38;;;1.76;100.00
10079;BME280;5078;42.544;22.966;2023-11-21T05:37:16;93706.16;;;1.76;100.00
10079;BME280;5078;42.544;22.966;2023-11-21T05:39:43;93704.88;;;1.91;100.00
10079;BME280;5078;42.544;22.966;2023-11-21T05:42:10;93691.88;;;2.01;100.00
10079;BME280;5078;42.544;22.966;2023-11-21T05:44:37;93701.97;;;2.05;100.00
10079;BME280;5078;42.544;22.966;2023-11-21T05:47:04;93699.56;;;2.23;100.00
10079;BME280;5078;42.544;22.966;2023-11-21T05:49:34;93702.69;;;2.17;100.00
10079;BME280;5078;42.544;22.966;2023-11-21T05:52:00;93698.94;;;2.31;100.00
10079;BME280;5078;42.544;22.966;2023-11-21T05:54:27;93696.78;;;2.46;100.00
10079;BME280;5078;42.544;22.966;2023-11-21T05:56:54;93692.06;;;2.40;100.00
10079;BME280;5078;42.544;22.966;2023-11-21T05:59:21;93694.03;;;2.16;100.00
10079;BME280;5078;42.544;22.966;2023-11-21T06:01:47;93703.94;;;2.44;100.00
10079;BME280;5078;42.544;22.966;2023-11-21T06:04:14;93699.69;;;2.43;100.00
10079;BME280;5078;42.544;22.966;2023-11-21T06:06:42;93705.47;;;2.46;100.00
10079;BME280;5078;42.544;22.966;2023-11-21T06:09:09;93702.28;;;2.43;100.00
10079;BME280;5078;42.544;22.966;2023-11-21T06:11:37;93707.31;;;2.34;100.00
10079;BME280;5078;42.544;22.966;2023-11-21T06:14:04;93700.91;;;2.79;100.00
10079;BME280;5078;42.544;22.966;2023-11-21T06:16:33;93701.41;;;2.63;100.00
10079;BME280;5078;42.544;22.966;2023-11-21T06:19:00;93703.16;;;2.53;100.00
10079;BME280;5078;42.544;22.966;2023-11-21T06:21:27;93710.22;;;2.62;100.00
10079;BME280;5078;42.544;22.966;2023-11-21T06:23:55;93717.44;;;2.18;100.00
10079;BME280;5078;42.544;22.966;2023-11-21T06:26:22;93720.06;;;2.49;100.00
10079;BME280;5078;42.544;22.966;2023-11-21T06:28:49;93718.09;;;2.72;100.00
10079;BME280;5078;42.544;22.966;2023-11-21T06:31:16;93725.88;;;2.83;100.00
10079;BME280;5078;42.544;22.966;2023-11-21T06:33:43;93715.28;;;2.85;100.00
10079;BME280;5078;42.544;22.966;2023-11-21T06:36:10;93722.50;;;2.71;100.00
10079;BME280;5078;42.544;22.966;2023-11-21T06:38:37;93705.44;;;3.17;100.00
10079;BME280;5078;42.544;22.966;2023-11-21T06:41:06;93705.94;;;3.11;100.00
10079;BME280;5078;42.544;22.966;2023-11-21T06:43:32;93720.91;;;3.59;100.00
10079;BME280;5078;42.544;22.966;2023-11-21T06:45:59;93732.38;;;3.97;100.00
10079;BME280;5078;42.544;22.966;2023-11-21T06:48:26;93728.75;;;4.18;100.00
10079;BME280;5078;42.544;22.966;2023-11-21T06:50:53;93724.22;;;4.10;100.00
10079;BME280;5078;42.544;22.966;2023-11-21T06:53:19;93727.78;;;4.19;100.00
10079;BME280;5078;42.544;22.966;2023-11-21T06:55:46;93730.59;;;3.98;100.00
10079;BME280;5078;42.544;22.966;2023-11-21T06:58:14;93732.63;;;4.14;100.00
10079;BME280;5078;42.544;22.966;2023-11-21T07:00:41;93728.94;;;3.58;100.00
10079;BME280;5078;42.544;22.966;2023-11-21T07:03:12;93728.38;;;4.03;100.00
10079;BME280;5078;42.544;22.966;2023-11-21T07:05:38;93718.16;;;3.90;100.00
10079;BME280;5078;42.544;22.966;2023-11-21T07:08:05;93713.16;;;3.97;100.00
10079;BME280;5078;42.544;22.966;2023-11-21T07:10:32;93724.59;;;4.35;100.00
10079;BME280;5078;42.544;22.966;2023-11-21T07:13:00;93736.22;;;4.32;100.00
10079;BME280;5078;42.544;22.966;2023-11-21T07:15:28;93733.97;;;4.37;100.00
10079;BME280;5078;42.544;22.966;2023-11-21T07:17:55;93713.53;;;4.31;100.00
10079;BME280;5078;42.544;22.966;2023-11-21T07:20:21;93724.41;;;4.46;100.00
10079;BME280;5078;42.544;22.966;2023-11-21T07:22:48;93730.41;;;4.75;100.00
10079;BME280;5078;42.544;22.966;2023-11-21T07:25:15;93729.06;;;4.99;100.00
10079;BME280;5078;42.544;22.966;2023-11-21T07:27:42;93716.19;;;4.68;100.00
10079;BME280;5078;42.544;22.966;2023-11-21T07:30:10;93726.25;;;5.10;100.00
10079;BME280;5078;42.544;22.966;2023-11-21T07:32:39;93734.47;;;5.25;100.00
10079;BME280;5078;42.544;22.966;2023-11-21T07:35:07;93737.41;;;5.22;100.00
10079;BME280;5078;42.544;22.966;2023-11-21T07:37:34;93745.72;;;4.90;100.00
10079;BME280;5078;42.544;22.966;2023-11-21T07:40:01;93728.16;;;4.33;100.00
10079;BME280;5078;42.544;22.966;2023-11-21T07:42:28;93724.84;;;4.79;100.00
10079;BME280;5078;42.544;22.966;2023-11-21T07:44:55;93731.38;;;5.12;100.00
10079;BME280;5078;42.544;22.966;2023-11-21T07:47:21;93725.81;;;5.60;100.00
10079;BME280;5078;42.544;22.966;2023-11-21T07:49:53;93726.63;;;6.07;100.00
10079;BME280;5078;42.544;22.966;2023-11-21T07:52:21;93716.16;;;6.41;100.00
10079;BME280;5078;42.544;22.966;2023-11-21T07:54:48;93718.81;;;7.01;100.00
10079;BME280;5078;42.544;22.966;2023-11-21T07:57:14;93711.97;;;7.17;100.00
10079;BME280;5078;42.544;22.966;2023-11-21T07:59:42;93719.06;;;7.67;100.00
10079;BME280;5078;42.544;22.966;2023-11-21T08:02:09;93707.06;;;8.05;100.00
10079;BME280;5078;42.544;22.966;2023-11-21T08:04:35;93707.38;;;8.18;100.00
10079;BME280;5078;42.544;22.966;2023-11-21T08:07:04;93722.44;;;8.59;100.00
10079;BME280;5078;42.544;22.966;2023-11-21T08:09:30;93720.06;;;8.89;100.00
10079;BME280;5078;42.544;22.966;2023-11-21T08:11:58;93711.28;;;8.88;100.00
10079;BME280;5078;42.544;22.966;2023-11-21T08:14:26;93717.66;;;9.18;100.00
10079;BME280;5078;42.544;22.966;2023-11-21T08:16:52;93722.41;;;8.75;100.00
10079;BME280;5078;42.544;22.966;2023-11-21T08:19:22;93716.50;;;8.57;100.00
10079;BME280;5078;42.544;22.966;2023-11-21T08:21:50;93714.00;;;8.39;100.00
10079;BME280;5078;42.544;22.966;2023-11-21T08:24:21;93703.13;;;8.42;100.00
10079;BME280;5078;42.544;22.966;2023-11-21T08:26:47;93709.53;;;8.48;100.00
10079;BME280;5078;42.544;22.966;2023-11-21T08:29:15;93705.28;;;8.47;100.00
10079;BME280;5078;42.544;22.966;2023-11-21T08:31:42;93678.50;;;7.84;100.00
10079;BME280;5078;42.544;22.966;2023-11-21T08:34:10;93695.03;;;8.19;100.00
10079;BME280;5078;42.544;22.966;2023-11-21T08:36:41;93669.75;;;8.00;100.00
10079;BME280;5078;42.544;22.966;2023-11-21T08:39:08;93678.19;;;8.12;100.00
10079;BME280;5078;42.544;22.966;2023-11-21T08:41:36;93669.41;;;8.28;100.00
10079;BME280;5078;42.544;22.966;2023-11-21T08:44:03;93667.63;;;8.12;100.00
10079;BME280;5078;42.544;22.966;2023-11-21T08:46:32;93659.53;;;8.05;100.00
10079;BME280;5078;42.544;22.966;2023-11-21T08:49:00;93650.75;;;7.64;100.00
10079;BME280;5078;42.544;22.966;2023-11-21T08:51:27;93647.66;;;7.85;100.00
10079;BME280;5078;42.544;22.966;2023-11-21T08:53:54;93626.69;;;7.83;100.00
10079;BME280;5078;42.544;22.966;2023-11-21T08:56:24;93631.16;;;7.91;100.00
10079;BME280;5078;42.544;22.966;2023-11-21T08:58:52;93638.72;;;7.86;100.00
10079;BME280;5078;42.544;22.966;2023-11-21T09:01:19;93640.06;;;7.82;100.00
10079;BME280;5078;42.544;22.966;2023-11-21T09:03:46;93625.38;;;7.63;100.00
10079;BME280;5078;42.544;22.966;2023-11-21T09:06:15;93616.81;;;7.69;100.00
10079;BME280;5078;42.544;22.966;2023-11-21T09:08:42;93600.63;;;7.55;100.00
10079;BME280;5078;42.544;22.966;2023-11-21T09:11:09;93601.63;;;7.87;100.00
10079;BME280;5078;42.544;22.966;2023-11-21T09:13:35;93603.91;;;8.15;100.00
10079;BME280;5078;42.544;22.966;2023-11-21T09:16:04;93595.31;;;8.29;100.00
10079;BME280;5078;42.544;22.966;2023-11-21T09:18:32;93579.47;;;8.21;100.00
10079;BME280;5078;42.544;22.966;2023-11-21T09:20:58;93559.69;;;8.17;100.00
10079;BME280;5078;42.544;22.966;2023-11-21T09:23:25;93563.94;;;8.34;100.00
10079;BME280;5078;42.544;22.966;2023-11-21T09:25:52;93551.72;;;8.25;100.00
10079;BME280;5078;42.544;22.966;2023-11-21T09:28:22;93555.34;;;8.49;100.00
10079;BME280;5078;42.544;22.966;2023-11-21T09:30:48;93550.72;;;8.42;100.00
10079;BME280;5078;42.544;22.966;2023-11-21T09:33:17;93549.72;;;8.52;100.00
10079;BME280;5078;42.544;22.966;2023-11-21T09:35:44;93556.03;;;8.18;100.00
10079;BME280;5078;42.544;22.966;2023-11-21T09:38:11;93562.25;;;8.50;100.00
10079;BME280;5078;42.544;22.966;2023-11-21T09:40:38;93559.94;;;8.55;100.00
10079;BME280;5078;42.544;22.966;2023-11-21T09:43:06;93565.25;;;8.47;100.00
10079;BME280;5078;42.544;22.966;2023-11-21T09:45:39;93559.31;;;8.45;100.00
10079;BME280;5078;42.544;22.966;2023-11-21T09:48:07;93541.69;;;8.76;100.00
10079;BME280;5078;42.544;22.966;2023-11-21T09:50:39;93540.25;;;8.97;100.00
10079;BME280;5078;42.544;22.966;2023-11-21T09:53:12;93536.97;;;8.55;100.00
10079;BME280;5078;42.544;22.966;2023-11-21T09:55:42;93540.84;;;9.07;100.00
10079;BME280;5078;42.544;22.966;2023-11-21T09:58:10;93529.38;;;9.38;100.00
10079;BME280;5078;42.544;22.966;2023-11-21T10:00:40;93529.28;;;9.31;100.00
10079;BME280;5078;42.544;22.966;2023-11-21T10:03:07;93527.44;;;9.55;100.00
10079;BME280;5078;42.544;22.966;2023-11-21T10:05:34;93519.72;;;9.68;100.00
10079;BME280;5078;42.544;22.966;2023-11-21T10:08:04;93519.34;;;9.94;100.00
10079;BME280;5078;42.544;22.966;2023-11-21T10:10:33;93503.84;;;9.68;100.00
10079;BME280;5078;42.544;22.966;2023-11-21T10:13:03;93477.13;;;9.78;100.00
10079;BME280;5078;42.544;22.966;2023-11-21T10:15:33;93493.16;;;10.14;100.00
10079;BME280;5078;42.544;22.966;2023-11-21T10:18:02;93486.44;;;10.03;100.00
10079;BME280;5078;42.544;22.966;2023-11-21T10:20:30;93487.63;;;9.86;100.00
10079;BME280;5078;42.544;22.966;2023-11-21T10:22:59;93483.72;;;9.97;100.00
10079;BME280;5078;42.544;22.966;2023-11-21T10:25:28;93488.25;;;9.88;100.00
10079;BME280;5078;42.544;22.966;2023-11-21T10:27:58;93483.16;;;9.71;99.39
10079;BME280;5078;42.544;22.966;2023-11-21T10:30:28;93474.53;;;9.55;100.00
10079;BME280;5078;42.544;22.966;2023-11-21T10:32:59;93486.59;;;9.72;98.07
10079;BME280;5078;42.544;22.966;2023-11-21T10:35:38;93481.22;;;9.80;98.68
10079;BME280;5078;42.544;22.966;2023-11-21T10:38:05;93491.00;;;9.80;98.11
10079;BME280;5078;42.544;22.966;2023-11-21T10:40:37;93489.41;;;9.70;99.54
10079;BME280;5078;42.544;22.966;2023-11-21T10:43:07;93483.69;;;9.67;98.69
10079;BME280;5078;42.544;22.966;2023-11-21T10:45:35;93474.59;;;9.46;100.00
10079;BME280;5078;42.544;22.966;2023-11-21T10:48:05;93473.47;;;9.41;100.00
10079;BME280;5078;42.544;22.966;2023-11-21T10:50:32;93476.22;;;9.47;100.00
10079;BME280;5078;42.544;22.966;2023-11-21T10:53:01;93461.47;;;9.53;100.00
10079;BME280;5078;42.544;22.966;2023-11-21T10:55:29;93462.66;;;9.65;100.00
10079;BME280;5078;42.544;22.966;2023-11-21T10:57:59;93461.22;;;9.78;100.00
10079;BME280;5078;42.544;22.966;2023-11-21T11:00:28;93444.16;;;9.80;99.58
10079;BME280;5078;42.544;22.966;2023-11-21T11:02:55;93436.41;;;9.64;99.50
10079;BME280;5078;42.544;22.966;2023-11-21T11:05:25;93451.94;;;9.82;98.21
10079;BME280;5078;42.544;22.966;2023-11-21T11:07:57;93439.06;;;9.79;97.83
10079;BME280;5078;42.544;22.966;2023-11-21T11:10:27;93442.31;;;9.66;100.00
10079;BME280;5078;42.544;22.966;2023-11-21T11:12:55;93434.97;;;9.76;100.00
10079;BME280;5078;42.544;22.966;2023-11-21T11:15:24;93438.41;;;9.77;100.00
10079;BME280;5078;42.544;22.966;2023-11-21T11:17:52;93446.28;;;9.85;100.00
10079;BME280;5078;42.544;22.966;2023-11-21T11:20:23;93457.78;;;9.92;100.00
10079;BME280;5078;42.544;22.966;2023-11-21T11:22:59;93417.34;;;9.31;100.00
10079;BME280;5078;42.544;22.966;2023-11-21T11:25:44;93440.97;;;9.85;100.00
10079;BME280;5078;42.544;22.966;2023-11-21T11:28:17;93439.97;;;9.86;100.00
10079;BME280;5078;42.544;22.966;2023-11-21T11:30:57;93424.28;;;9.84;100.00
10079;BME280;5078;42.544;22.966;2023-11-21T11:33:35;93418.59;;;9.87;100.00
10079;BME280;5078;42.544;22.966;2023-11-21T11:36:06;93422.72;;;9.90;100.00
10079;BME280;5078;42.544;22.966;2023-11-21T11:38:37;93408.94;;;9.94;100.00
10079;BME280;5078;42.544;22.966;2023-11-21T11:41:05;93405.75;;;9.99;100.00
10079;BME280;5078;42.544;22.966;2023-11-21T11:43:32;93414.78;;;10.05;100.00
10079;BME280;5078;42.544;22.966;2023-11-21T11:46:06;93417.59;;;10.03;100.00
10079;BME280;5078;42.544;22.966;2023-11-21T11:48:37;93414.50;;;10.14;100.00
10079;BME280;5078;42.544;22.966;2023-11-21T11:51:06;93403.16;;;10.21;100.00
10079;BME280;5078;42.544;22.966;2023-11-21T11:53:39;93410.38;;;10.27;100.00
10079;BME280;5078;42.544;22.966;2023-11-21T11:56:21;93413.03;;;10.27;100.00
10079;BME280;5078;42.544;22.966;2023-11-21T11:58:49;93416.84;;;10.24;100.00
10079;BME280;5078;42.544;22.966;2023-11-21T12:01:18;93412.13;;;10.34;100.00
10079;BME280;5078;42.544;22.966;2023-11-21T12:04:24;93403.25;;;10.42;100.00
10079;BME280;5078;42.544;22.966;2023-11-21T12:06:57;93400.41;;;10.44;100.00
10079;BME280;5078;42.544;22.966;2023-11-21T12:09:26;93369.16;;;10.39;100.00
10079;BME280;5078;42.544;22.966;2023-11-21T12:11:53;93383.59;;;10.51;100.00
10079;BME280;5078;42.544;22.966;2023-11-21T12:14:22;93384.13;;;10.47;100.00
10079;BME280;5078;42.544;22.966;2023-11-21T12:16:51;93371.19;;;10.37;100.00
10079;BME280;5078;42.544;22.966;2023-11-21T12:19:18;93373.38;;;10.48;100.00
10079;BME280;5078;42.544;22.966;2023-11-21T12:21:48;93390.38;;;10.61;99.51
10079;BME280;5078;42.544;22.966;2023-11-21T12:24:15;93386.94;;;10.60;99.58
10079;BME280;5078;42.544;22.966;2023-11-21T12:26:43;93388.19;;;10.64;99.90
10079;BME280;5078;42.544;22.966;2023-11-21T12:29:10;93371.84;;;10.61;99.65
10079;BME280;5078;42.544;22.966;2023-11-21T12:31:36;93374.75;;;10.66;99.69
10079;BME280;5078;42.544;22.966;2023-11-21T12:34:04;93376.66;;;10.72;97.87
10079;BME280;5078;42.544;22.966;2023-11-21T12:36:32;93361.63;;;10.79;98.05
10079;BME280;5078;42.544;22.966;2023-11-21T12:39:00;93365.03;;;10.73;97.49
10079;BME280;5078;42.544;22.966;2023-11-21T12:41:28;93385.72;;;10.63;99.17
10079;BME280;5078;42.544;22.966;2023-11-21T12:43:55;93342.75;;;10.67;98.43
10079;BME280;5078;42.544;22.966;2023-11-21T12:46:23;93365.03;;;10.73;98.63
10079;BME280;5078;42.544;22.966;2023-11-21T12:48:51;93353.22;;;10.75;97.66
10079;BME280;5078;42.544;22.966;2023-11-21T12:51:21;93362.63;;;10.56;98.27
10079;BME280;5078;42.544;22.966;2023-11-21T12:53:48;93352.34;;;10.68;97.13
10079;BME280;5078;42.544;22.966;2023-11-21T12:56:15;93339.59;;;10.78;96.72
10079;BME280;5078;42.544;22.966;2023-11-21T12:58:45;93341.66;;;10.83;97.37
10079;BME280;5078;42.544;22.966;2023-11-21T13:01:13;93341.75;;;10.90;95.70
10079;BME280;5078;42.544;22.966;2023-11-21T13:03:46;93352.03;;;10.99;93.25